Time,TemperatureF,DewpointF,PressureIn,WindDirection,WindDirectionDegrees,WindSpeedMPH,WindSpeedGustMPH,Humidity,HourlyPrecipIn,Conditions,Clouds,dailyrainin,SolarRadiationWatts/m^2,SoftwareType,DateUTC
2013-03-10 00:00:00,28.7,23.3,30.26,NNW,332,0.0,0.0,80,0.00,CLR,,0.00,0.0,WeatherDisplay:10.37,2013-03-10 05:00:00,
2013-03-10 00:01:00,28.7,23.3,30.26,NNW,332,0.0,0.0,80,0.00,CLR,,0.00,0.0,WeatherDisplay:10.37,2013-03-10 05:01:00,
2013-03-10 00:06:00,28.4,23.0,30.26,NNW,332,0.0,0.0,80,0.00,CLR,,0.00,0.0,WeatherDisplay:10.37,2013-03-10 05:06:00,
2013-03-10 00:11:00,28.4,23.0,30.26,NNW,332,0.0,0.0,80,0.00,CLR,,0.00,0.0,WeatherDisplay:10.37,2013-03-10 05:11:00,
2013-03-10 00:16:00,28.4,23.3,30.26,NNW,332,0.0,0.0,81,0.00,CLR,,0.00,0.0,WeatherDisplay:10.37,2013-03-10 05:16:00,
2013-03-10 00:21:00,28.4,23.3,30.26,NNW,332,0.0,0.0,81,0.00,CLR,,0.00,0.0,WeatherDisplay:10.37,2013-03-10 05:21:00,
2013-03-10 00:26:00,28.2,23.1,30.26,NNW,332,0.0,0.0,81,0.00,CLR,,0.00,0.0,WeatherDisplay:10.37,2013-03-10 05:26:00,
2013-03-10 00:31:00,28.2,23.4,30.26,NNW,332,0.0,0.0,82,0.00,CLR,,0.00,0.0,WeatherDisplay:10.37,2013-03-10 05:31:00,
2013-03-10 00:36:00,28.2,23.4,30.26,NNW,332,0.0,0.0,82,0.00,CLR,,0.00,0.0,WeatherDisplay:10.37,2013-03-10 05:36:00,
2013-03-10 00:41:00,27.8,23.0,30.26,NNW,332,0.0,0.0,82,0.00,CLR,,0.00,0.0,WeatherDisplay:10.37,2013-03-10 05:41:00,
2013-03-10 00:46:00,27.3,22.5,30.26,NNW,332,0.0,0.0,82,0.00,CLR,,0.00,0.0,WeatherDisplay:10.37,2013-03-10 05:46:00,
2013-03-10 00:51:00,27.2,22.4,30.26,NNW,332,0.0,0.0,82,0.00,CLR,,0.00,0.0,WeatherDisplay:10.37,2013-03-10 05:51:00,
2013-03-10 00:56:00,27.3,22.8,30.26,NNW,332,0.0,0.0,83,0.00,CLR,,0.00,0.0,WeatherDisplay:10.37,2013-03-10 05:56:00,
2013-03-10 01:01:00,27.5,23.0,30.26,NNW,332,0.0,0.0,83,0.00,CLR,,0.00,0.0,WeatherDisplay:10.37,2013-03-10 06:01:00,
2013-03-10 01:06:00,27.3,22.8,30.26,NNW,332,0.0,0.0,83,0.00,CLR,,0.00,0.0,WeatherDisplay:10.37,2013-03-10 06:06:00,
2013-03-10 01:11:00,27.2,22.7,30.26,NNW,332,0.0,0.0,83,0.00,CLR,,0.00,0.0,WeatherDisplay:10.37,2013-03-10 06:11:00,
2013-03-10 01:16:00,27.3,23.1,30.26,NNW,332,0.0,0.0,84,0.00,CLR,,0.00,0.0,WeatherDisplay:10.37,2013-03-10 06:16:00,
2013-03-10 01:21:00,27.6,23.4,30.25,NNW,332,0.0,0.0,84,0.00,CLR,,0.00,0.0,WeatherDisplay:10.37,2013-03-10 06:21:00,
2013-03-10 01:26:00,27.6,23.4,30.25,NNW,332,0.0,0.0,84,0.00,CLR,,0.00,0.0,WeatherDisplay:10.37,2013-03-10 06:26:00,
2013-03-10 01:31:00,27.3,23.1,30.26,NNW,332,0.0,0.0,84,0.00,CLR,,0.00,0.0,WeatherDisplay:10.37,2013-03-10 06:31:00,
2013-03-10 01:36:00,27.0,22.8,30.26,NNW,332,0.0,0.0,84,0.00,CLR,,0.00,0.0,WeatherDisplay:10.37,2013-03-10 06:36:00,
2013-03-10 01:41:00,27.0,23.1,30.26,NNW,332,0.0,0.0,85,0.00,CLR,,0.00,0.0,WeatherDisplay:10.37,2013-03-10 06:41:00,
2013-03-10 01:46:00,26.9,23.0,30.26,NNW,332,0.0,0.0,85,0.00,CLR,,0.00,0.0,WeatherDisplay:10.37,2013-03-10 06:46:00,
2013-03-10 01:51:00,26.7,22.8,30.26,NNW,332,0.0,0.0,85,0.00,CLR,,0.00,0.0,WeatherDisplay:10.37,2013-03-10 06:51:00,
2013-03-10 01:56:00,26.9,23.0,30.26,NNW,332,0.0,0.0,85,0.00,CLR,,0.00,0.0,WeatherDisplay:10.37,2013-03-10 06:56:00,
2013-03-10 03:01:00,26.9,23.0,30.25,NNW,332,0.0,0.0,85,0.00,CLR,,0.00,0.0,WeatherDisplay:10.37,2013-03-10 07:01:00,
2013-03-10 03:06:00,26.9,23.0,30.25,NNW,332,0.0,0.0,85,0.00,CLR,,0.00,0.0,WeatherDisplay:10.37,2013-03-10 07:06:00,
2013-03-10 03:11:00,27.3,23.7,30.25,NNW,332,0.0,0.0,86,0.00,CLR,,0.00,0.0,WeatherDisplay:10.37,2013-03-10 07:11:00,
2013-03-10 03:16:00,27.2,23.6,30.25,NNW,332,0.0,0.0,86,0.00,CLR,,0.00,0.0,WeatherDisplay:10.37,2013-03-10 07:16:00,
2013-03-10 03:21:00,26.9,23.3,30.25,NNW,332,0.0,0.0,86,0.00,CLR,,0.00,0.0,WeatherDisplay:10.37,2013-03-10 07:21:00,
2013-03-10 03:26:00,26.4,22.8,30.25,NNW,332,0.0,0.0,86,0.00,CLR,,0.00,0.0,WeatherDisplay:10.37,2013-03-10 07:26:00,
2013-03-10 03:31:00,26.3,22.7,30.25,NNW,332,0.0,0.0,86,0.00,CLR,,0.00,0.0,WeatherDisplay:10.37,2013-03-10 07:31:00,
2013-03-10 03:36:00,26.4,22.8,30.24,NNW,332,0.0,0.0,86,0.00,CLR,,0.00,0.0,WeatherDisplay:10.37,2013-03-10 07:36:00,
2013-03-10 03:41:00,26.4,22.8,30.24,NNW,332,0.0,0.0,86,0.00,CLR,,0.00,0.0,WeatherDisplay:10.37,2013-03-10 07:41:00,
2013-03-10 03:46:00,26.1,22.5,30.24,NNW,332,0.0,0.0,86,0.00,CLR,,0.00,0.0,WeatherDisplay:10.37,2013-03-10 07:46:00,
2013-03-10 03:51:00,26.0,22.4,30.23,NNW,332,0.0,0.0,86,0.00,CLR,,0.00,0.0,WeatherDisplay:10.37,2013-03-10 07:51:00,
2013-03-10 03:56:00,26.0,22.4,30.23,NNW,332,0.0,0.0,86,0.00,CLR,,0.00,0.0,WeatherDisplay:10.37,2013-03-10 07:56:00,
2013-03-10 04:01:00,26.0,22.4,30.23,NNW,332,0.0,0.0,86,0.00,CLR,,0.00,0.0,WeatherDisplay:10.37,2013-03-10 08:01:00,
2013-03-10 04:06:00,26.0,22.4,30.23,NNW,332,0.0,0.0,86,0.00,CLR,,0.00,0.0,WeatherDisplay:10.37,2013-03-10 08:06:00,
2013-03-10 04:11:00,25.7,22.1,30.23,NNW,332,0.0,0.0,86,0.00,CLR,,0.00,0.0,WeatherDisplay:10.37,2013-03-10 08:11:00,
2013-03-10 04:16:00,25.7,22.4,30.23,NNW,332,0.0,0.0,87,0.00,CLR,,0.00,0.0,WeatherDisplay:10.37,2013-03-10 08:16:00,
2013-03-10 04:21:00,25.7,22.4,30.23,NNW,332,0.0,0.0,87,0.00,CLR,,0.00,0.0,WeatherDisplay:10.37,2013-03-10 08:21:00,
2013-03-10 04:26:00,25.7,22.4,30.23,NNW,332,0.0,0.0,87,0.00,CLR,,0.00,0.0,WeatherDisplay:10.37,2013-03-10 08:26:00,
2013-03-10 04:31:00,25.8,22.5,30.23,NNW,332,0.0,0.0,87,0.00,CLR,,0.00,0.0,WeatherDisplay:10.37,2013-03-10 08:31:00,
2013-03-10 04:36:00,26.0,22.7,30.23,NNW,332,0.0,0.0,87,0.00,CLR,,0.00,0.0,WeatherDisplay:10.37,2013-03-10 08:36:00,
2013-03-10 04:41:00,26.0,22.7,30.23,NNW,332,0.0,0.0,87,0.00,CLR,,0.00,0.0,WeatherDisplay:10.37,2013-03-10 08:41:00,
2013-03-10 04:46:00,25.8,22.5,30.23,NNW,332,0.0,0.0,87,0.00,CLR,,0.00,0.0,WeatherDisplay:10.37,2013-03-10 08:46:00,
2013-03-10 04:51:00,25.7,22.4,30.23,NNW,332,0.0,0.0,87,0.00,CLR,,0.00,0.0,WeatherDisplay:10.37,2013-03-10 08:51:00,
2013-03-10 04:56:00,25.8,22.7,30.23,NNW,332,0.0,0.0,88,0.00,CLR,,0.00,0.0,WeatherDisplay:10.37,2013-03-10 08:56:00,
2013-03-10 05:01:00,25.7,22.6,30.23,NNW,332,0.0,0.0,88,0.00,CLR,,0.00,0.0,WeatherDisplay:10.37,2013-03-10 09:01:00,
2013-03-10 05:06:00,25.4,22.3,30.23,NNW,332,0.0,0.0,88,0.00,CLR,,0.00,0.0,WeatherDisplay:10.37,2013-03-10 09:06:00,
2013-03-10 05:11:00,25.3,22.2,30.23,NNW,332,0.0,0.0,88,0.00,CLR,,0.00,0.0,WeatherDisplay:10.37,2013-03-10 09:11:00,
2013-03-10 05:16:00,25.1,22.0,30.24,NNW,332,0.0,0.0,88,0.00,CLR,,0.00,0.0,WeatherDisplay:10.37,2013-03-10 09:16:00,
2013-03-10 05:21:00,25.3,22.2,30.24,NNW,332,0.0,0.0,88,0.00,CLR,,0.00,0.0,WeatherDisplay:10.37,2013-03-10 09:21:00,
2013-03-10 05:26:00,25.6,22.5,30.25,NNW,332,0.0,0.0,88,0.00,CLR,,0.00,0.0,WeatherDisplay:10.37,2013-03-10 09:26:00,
2013-03-10 05:31:00,25.4,22.3,30.25,NNW,332,0.0,0.0,88,0.00,CLR,,0.00,0.0,WeatherDisplay:10.37,2013-03-10 09:31:00,
2013-03-10 05:36:00,25.7,22.6,30.25,NNW,332,0.0,0.0,88,0.00,CLR,,0.00,0.0,WeatherDisplay:10.37,2013-03-10 09:36:00,
2013-03-10 05:41:00,26.3,23.5,30.25,NNW,332,0.0,0.0,89,0.00,CLR,,0.00,0.0,WeatherDisplay:10.37,2013-03-10 09:41:00,
2013-03-10 05:46:00,26.1,23.0,30.25,NNW,332,0.0,0.0,88,0.00,CLR,,0.00,0.0,WeatherDisplay:10.37,2013-03-10 09:46:00,
2013-03-10 05:51:00,25.4,22.3,30.25,NNW,332,0.0,0.0,88,0.00,CLR,,0.00,0.0,WeatherDisplay:10.37,2013-03-10 09:51:00,
2013-03-10 05:56:00,25.4,22.6,30.25,NNW,332,0.0,0.0,89,0.00,CLR,,0.00,0.0,WeatherDisplay:10.37,2013-03-10 09:56:00,
2013-03-10 06:01:00,25.1,22.0,30.25,NNW,332,0.0,0.0,88,0.00,CLR,,0.00,0.0,WeatherDisplay:10.37,2013-03-10 10:01:00,
2013-03-10 06:06:00,25.1,22.3,30.25,NNW,332,0.0,0.0,89,0.00,CLR,,0.00,0.0,WeatherDisplay:10.37,2013-03-10 10:06:00,
2013-03-10 06:11:00,25.4,22.6,30.25,NNW,332,0.0,0.0,89,0.00,CLR,,0.00,0.0,WeatherDisplay:10.37,2013-03-10 10:11:00,
2013-03-10 06:16:00,25.4,22.6,30.25,NNW,332,0.0,0.0,89,0.00,CLR,,0.00,0.0,WeatherDisplay:10.37,2013-03-10 10:16:00,
2013-03-10 06:21:00,25.3,22.5,30.25,NNW,332,0.0,0.0,89,0.00,CLR,,0.00,0.0,WeatherDisplay:10.37,2013-03-10 10:21:00,
2013-03-10 06:26:00,25.3,22.5,30.25,NNW,332,0.0,0.0,89,0.00,CLR,,0.00,0.0,WeatherDisplay:10.37,2013-03-10 10:26:00,
2013-03-10 06:31:00,25.3,22.5,30.25,NNW,332,0.0,0.0,89,0.00,CLR,,0.00,0.0,WeatherDisplay:10.37,2013-03-10 10:31:00,
2013-03-10 06:36:00,24.7,21.9,30.25,NNW,332,0.0,0.0,89,0.00,CLR,,0.00,0.0,WeatherDisplay:10.37,2013-03-10 10:36:00,
2013-03-10 06:41:00,24.7,21.9,30.25,NNW,332,0.0,0.0,89,0.00,CLR,,0.00,0.0,WeatherDisplay:10.37,2013-03-10 10:41:00,
2013-03-10 06:46:00,24.7,21.9,30.25,NNW,332,0.0,0.0,89,0.00,CLR,,0.00,0.0,WeatherDisplay:10.37,2013-03-10 10:46:00,
2013-03-10 06:51:00,24.7,21.9,30.25,NNW,332,0.0,0.0,89,0.00,CLR,,0.00,0.0,WeatherDisplay:10.37,2013-03-10 10:51:00,
2013-03-10 06:56:00,24.7,21.9,30.25,NNW,332,0.0,0.0,89,0.00,CLR,,0.00,0.0,WeatherDisplay:10.37,2013-03-10 10:56:00,
2013-03-10 07:01:00,24.8,22.0,30.25,NNW,332,0.0,0.0,89,0.00,CLR,,0.00,0.0,WeatherDisplay:10.37,2013-03-10 11:01:00,
2013-03-10 07:06:00,24.7,21.9,30.25,NNW,332,0.0,0.0,89,0.00,CLR,,0.00,0.0,WeatherDisplay:10.37,2013-03-10 11:06:00,
2013-03-10 07:11:00,24.7,21.9,30.25,NNW,332,0.0,0.0,89,0.00,CLR,,0.00,0.0,WeatherDisplay:10.37,2013-03-10 11:11:00,
2013-03-10 07:16:00,25.0,22.2,30.25,NNW,332,0.0,0.0,89,0.00,CLR,,0.00,0.0,WeatherDisplay:10.37,2013-03-10 11:16:00,
2013-03-10 07:21:00,24.8,22.0,30.25,NNW,332,0.0,0.0,89,0.00,CLR,,0.00,0.0,WeatherDisplay:10.37,2013-03-10 11:21:00,
2013-03-10 07:26:00,24.7,21.9,30.25,NNW,332,0.0,0.0,89,0.00,CLR,,0.00,0.0,WeatherDisplay:10.37,2013-03-10 11:26:00,
2013-03-10 07:31:00,24.5,21.7,30.25,NNW,332,0.0,0.0,89,0.00,CLR,,0.00,5.0,WeatherDisplay:10.37,2013-03-10 11:31:00,
2013-03-10 07:36:00,24.7,21.9,30.25,NNW,332,0.0,0.0,89,0.00,CLR,,0.00,9.0,WeatherDisplay:10.37,2013-03-10 11:36:00,
2013-03-10 07:41:00,25.0,22.5,30.25,NNW,332,0.0,0.0,90,0.00,CLR,,0.00,12.0,WeatherDisplay:10.37,2013-03-10 11:41:00,
2013-03-10 07:46:00,25.1,22.6,30.25,NNW,332,0.0,0.0,90,0.00,CLR,,0.00,18.0,WeatherDisplay:10.37,2013-03-10 11:46:00,
2013-03-10 07:51:00,25.4,22.9,30.24,NNW,332,0.0,0.0,90,0.00,CLR,,0.00,23.0,WeatherDisplay:10.37,2013-03-10 11:51:00,
2013-03-10 07:56:00,25.8,23.3,30.24,NNW,332,1.0,3.0,90,0.00,CLR,,0.00,28.0,WeatherDisplay:10.37,2013-03-10 11:56:00,
2013-03-10 08:01:00,25.8,23.3,30.25,NNW,332,0.0,0.0,90,0.00,CLR,,0.00,39.0,WeatherDisplay:10.37,2013-03-10 12:01:00,
2013-03-10 08:06:00,26.0,23.5,30.26,NNW,332,0.0,0.0,90,0.00,CLR,,0.00,56.0,WeatherDisplay:10.37,2013-03-10 12:06:00,
2013-03-10 08:11:00,26.4,24.1,30.26,NNW,332,0.0,0.0,91,0.00,SCT,,0.00,69.0,WeatherDisplay:10.37,2013-03-10 12:11:00,
2013-03-10 08:16:00,27.0,24.7,30.26,NNW,332,0.0,0.0,91,0.00,SCT,,0.00,83.0,WeatherDisplay:10.37,2013-03-10 12:16:00,
2013-03-10 08:21:00,27.3,25.0,30.26,NNW,332,0.0,0.0,91,0.00,SCT,,0.00,167.0,WeatherDisplay:10.37,2013-03-10 12:21:00,
2013-03-10 08:26:00,28.1,25.8,30.27,NNW,332,0.0,0.0,91,0.00,SCT,,0.00,160.0,WeatherDisplay:10.37,2013-03-10 12:26:00,
2013-03-10 08:31:00,29.4,27.4,30.27,NNW,332,0.0,0.0,92,0.00,SCT,,0.00,163.0,WeatherDisplay:10.37,2013-03-10 12:31:00,
2013-03-10 08:36:00,30.4,28.4,30.28,NNW,332,0.0,0.0,92,0.00,SCT,,0.00,162.0,WeatherDisplay:10.37,2013-03-10 12:36:00,
2013-03-10 08:41:00,31.6,29.5,30.28,NNW,332,0.0,0.0,92,0.00,SCT,,0.00,160.0,WeatherDisplay:10.37,2013-03-10 12:41:00,
2013-03-10 08:46:00,32.8,30.7,30.28,North,355,1.4,3.0,92,0.00,SCT,,0.00,155.0,WeatherDisplay:10.37,2013-03-10 12:46:00,
2013-03-10 08:51:00,32.9,30.3,30.28,East,86,1.8,3.5,90,0.00,SCT,,0.00,95.0,WeatherDisplay:10.37,2013-03-10 12:51:00,
2013-03-10 08:56:00,32.8,29.6,30.28,East,101,0.1,1.2,88,0.00,SCT,,0.00,213.0,WeatherDisplay:10.37,2013-03-10 12:56:00,
2013-03-10 09:01:00,33.4,29.9,30.28,ESE,103,0.4,3.5,87,0.00,SCT,,0.00,236.0,WeatherDisplay:10.37,2013-03-10 13:01:00,
2013-03-10 09:06:00,34.3,30.5,30.28,ESE,102,0.6,1.5,86,0.00,SCT,,0.00,251.0,WeatherDisplay:10.37,2013-03-10 13:06:00,
2013-03-10 09:11:00,35.0,30.7,30.28,ESE,102,0.0,0.0,84,0.00,SCT,,0.00,202.0,WeatherDisplay:10.37,2013-03-10 13:11:00,
2013-03-10 09:16:00,35.9,31.2,30.28,ESE,102,0.0,0.0,83,0.00,SCT,,0.00,134.0,WeatherDisplay:10.37,2013-03-10 13:16:00,
2013-03-10 09:21:00,36.3,31.0,30.28,ESE,102,0.0,0.0,81,0.00,SCT,,0.00,306.0,WeatherDisplay:10.37,2013-03-10 13:21:00,
2013-03-10 09:26:00,36.8,31.2,30.28,ESE,102,0.1,1.5,80,0.00,SCT,,0.00,338.0,WeatherDisplay:10.37,2013-03-10 13:26:00,
2013-03-10 09:31:00,37.2,31.3,30.28,ESE,102,0.1,1.5,79,0.00,SCT,,0.00,350.0,WeatherDisplay:10.37,2013-03-10 13:31:00,
2013-03-10 09:36:00,37.5,31.3,30.28,ESE,102,0.0,0.0,78,0.00,SCT,,0.00,369.0,WeatherDisplay:10.37,2013-03-10 13:36:00,
2013-03-10 09:41:00,38.2,31.9,30.28,ESE,102,0.0,0.0,78,0.00,SCT,,0.00,387.0,WeatherDisplay:10.37,2013-03-10 13:41:00,
2013-03-10 09:46:00,39.2,32.6,30.27,ESE,102,0.0,0.0,77,0.00,SCT,,0.00,406.0,WeatherDisplay:10.37,2013-03-10 13:46:00,
2013-03-10 09:51:00,40.3,31.6,30.27,ESE,102,1.8,3.0,71,0.00,SCT,,0.00,418.0,WeatherDisplay:10.37,2013-03-10 13:51:00,
2013-03-10 09:57:00,40.5,30.8,30.27,ESE,103,0.1,1.2,68,0.00,SCT,,0.00,436.0,WeatherDisplay:10.37,2013-03-10 13:57:00,
2013-03-10 10:02:00,41.1,31.7,30.27,ESE,103,0.0,0.0,69,0.00,SCT,,0.00,457.0,WeatherDisplay:10.37,2013-03-10 14:02:00,
2013-03-10 10:07:00,42.2,32.4,30.27,ESE,103,0.0,1.2,68,0.00,SCT,,0.00,475.0,WeatherDisplay:10.37,2013-03-10 14:07:00,
2013-03-10 10:12:00,44.2,33.6,30.27,East,100,0.6,1.5,66,0.00,BKN,,0.00,478.0,WeatherDisplay:10.37,2013-03-10 14:12:00,
2013-03-10 10:17:00,45.2,34.1,30.27,East,100,0.1,0.0,65,0.00,BKN,,0.00,475.0,WeatherDisplay:10.37,2013-03-10 14:17:00,
2013-03-10 10:22:00,46.8,32.8,30.27,East,100,0.1,1.5,58,0.00,BKN,,0.00,490.0,WeatherDisplay:10.37,2013-03-10 14:22:00,
2013-03-10 10:27:00,48.2,32.3,30.27,South,173,4.5,4.6,54,0.00,BKN,,0.00,526.0,WeatherDisplay:10.37,2013-03-10 14:27:00,
2013-03-10 10:32:00,49.8,30.4,30.27,SE,130,2.6,3.5,47,0.00,BKN,,0.00,522.0,WeatherDisplay:10.37,2013-03-10 14:32:00,
2013-03-10 10:37:00,50.4,29.8,30.26,ESE,122,7.1,8.1,45,0.00,BKN,,0.00,526.0,WeatherDisplay:10.37,2013-03-10 14:37:00,
2013-03-10 10:42:00,50.5,29.9,30.26,SE,137,2.8,4.6,45,0.00,BKN,,0.00,550.0,WeatherDisplay:10.37,2013-03-10 14:42:00,
2013-03-10 10:47:00,51.4,30.2,30.26,ESE,123,4.6,9.2,44,0.00,BKN,,0.00,557.0,WeatherDisplay:10.37,2013-03-10 14:47:00,
2013-03-10 10:52:00,52.0,30.2,30.26,SSE,149,5.9,8.1,43,0.00,BKN,,0.00,568.0,WeatherDisplay:10.37,2013-03-10 14:52:00,
2013-03-10 10:57:00,52.9,29.2,30.26,SSW,193,7.5,15.0,40,0.00,BKN,,0.00,591.0,WeatherDisplay:10.37,2013-03-10 14:57:00,
2013-03-10 11:02:00,53.8,29.4,30.26,SE,127,8.2,10.4,39,0.00,BKN,,0.00,599.0,WeatherDisplay:10.37,2013-03-10 15:02:00,
2013-03-10 11:07:00,54.2,29.1,30.26,SSE,157,7.9,9.2,38,0.00,BKN,,0.00,615.0,WeatherDisplay:10.37,2013-03-10 15:07:00,
2013-03-10 11:12:00,54.8,30.3,30.26,SSE,153,5.5,5.8,39,0.00,BKN,,0.00,592.0,WeatherDisplay:10.37,2013-03-10 15:12:00,
2013-03-10 11:17:00,55.1,27.9,30.26,SE,144,8.5,13.5,35,0.00,BKN,,0.00,624.0,WeatherDisplay:10.37,2013-03-10 15:17:00,
2013-03-10 11:22:00,55.1,28.6,30.26,SE,142,6.9,10.5,36,0.00,BKN,,0.00,636.0,WeatherDisplay:10.37,2013-03-10 15:22:00,
2013-03-10 11:27:00,55.4,26.7,30.26,SSE,151,13.8,16.5,33,0.00,BKN,,0.00,640.0,WeatherDisplay:10.37,2013-03-10 15:27:00,
2013-03-10 11:32:00,55.4,25.2,30.26,SSE,167,14.2,19.6,31,0.00,BKN,,0.00,656.0,WeatherDisplay:10.37,2013-03-10 15:32:00,
2013-03-10 11:37:00,55.6,27.6,30.26,SSE,160,11.1,16.1,34,0.00,BKN,,0.00,661.0,WeatherDisplay:10.37,2013-03-10 15:37:00,
2013-03-10 11:42:00,56.2,27.4,30.25,SSE,148,14.6,21.0,33,0.00,BKN,,0.00,670.0,WeatherDisplay:10.37,2013-03-10 15:42:00,
2013-03-10 11:47:00,56.3,28.3,30.26,SE,144,12.1,18.4,34,0.00,BKN,,0.00,675.0,WeatherDisplay:10.37,2013-03-10 15:47:00,
2013-03-10 11:52:00,56.6,28.5,30.25,SE,138,16.7,16.7,34,0.00,BKN,,0.00,687.0,WeatherDisplay:10.37,2013-03-10 15:52:00,
2013-03-10 11:57:00,56.7,26.4,30.25,SE,138,13.7,15.0,31,0.00,BKN,,0.00,691.0,WeatherDisplay:10.37,2013-03-10 15:57:00,
2013-03-10 12:02:00,56.9,27.3,30.25,South,184,7.9,9.2,32,0.00,BKN,,0.00,701.0,WeatherDisplay:10.37,2013-03-10 16:02:00,
2013-03-10 12:07:00,57.2,26.8,30.25,SW,221,13.6,16.5,31,0.00,BKN,,0.00,707.0,WeatherDisplay:10.37,2013-03-10 16:07:00,
2013-03-10 12:12:00,57.3,26.9,30.25,SE,128,12.0,18.4,31,0.00,BKN,,0.00,710.0,WeatherDisplay:10.37,2013-03-10 16:12:00,
2013-03-10 12:17:00,58.1,28.4,30.25,ESE,122,8.6,15.0,32,0.00,BKN,,0.00,717.0,WeatherDisplay:10.37,2013-03-10 16:17:00,
2013-03-10 12:22:00,58.1,26.8,30.24,SE,126,9.6,15.0,30,0.00,BKN,,0.00,724.0,WeatherDisplay:10.37,2013-03-10 16:22:00,
2013-03-10 12:27:00,58.1,25.1,30.24,SE,143,13.9,18.4,28,0.00,BKN,,0.00,728.0,WeatherDisplay:10.37,2013-03-10 16:27:00,
2013-03-10 12:32:00,58.7,28.1,30.24,ESE,115,7.0,15.0,31,0.00,BKN,,0.00,731.0,WeatherDisplay:10.37,2013-03-10 16:32:00,
2013-03-10 12:37:00,59.0,27.6,30.24,SSE,160,12.4,16.5,30,0.00,BKN,,0.00,733.0,WeatherDisplay:10.37,2013-03-10 16:37:00,
2013-03-10 12:42:00,58.7,26.5,30.24,SSE,161,17.9,18.4,29,0.00,BKN,,0.00,735.0,WeatherDisplay:10.37,2013-03-10 16:42:00,
2013-03-10 12:47:00,58.7,28.1,30.23,SSE,150,7.6,15.0,31,0.00,BKN,,0.00,745.0,WeatherDisplay:10.37,2013-03-10 16:47:00,
2013-03-10 12:52:00,59.3,27.8,30.23,SE,133,10.2,10.4,30,0.00,BKN,,0.00,756.0,WeatherDisplay:10.37,2013-03-10 16:52:00,
2013-03-10 12:58:00,59.2,26.1,30.23,SE,144,19.4,24.2,28,0.00,BKN,,0.00,770.0,WeatherDisplay:10.37,2013-03-10 16:58:00,
2013-03-10 13:03:00,59.9,27.5,30.23,SSE,158,8.7,15.0,29,0.00,BKN,,0.00,780.0,WeatherDisplay:10.37,2013-03-10 17:03:00,
2013-03-10 13:08:00,59.8,26.6,30.22,SE,134,13.2,18.4,28,0.00,BKN,,0.00,761.0,WeatherDisplay:10.37,2013-03-10 17:08:00,
2013-03-10 13:13:00,60.2,26.9,30.22,WSW,242,15.5,19.6,28,0.00,BKN,,0.00,765.0,WeatherDisplay:10.37,2013-03-10 17:13:00,
2013-03-10 13:18:00,60.9,26.7,30.22,SSE,153,17.0,17.0,27,0.00,BKN,,0.00,738.0,WeatherDisplay:10.37,2013-03-10 17:18:00,
2013-03-10 13:23:00,60.4,26.2,30.22,SE,146,13.2,23.0,27,0.00,BKN,,0.00,700.0,WeatherDisplay:10.37,2013-03-10 17:23:00,
2013-03-10 13:28:00,60.4,27.1,30.21,SSE,167,10.5,19.6,28,0.00,BKN,,0.00,717.0,WeatherDisplay:10.37,2013-03-10 17:28:00,
2013-03-10 13:33:00,61.0,25.8,30.21,SSE,151,18.5,22.5,26,0.00,BKN,,0.00,740.0,WeatherDisplay:10.37,2013-03-10 17:33:00,
2013-03-10 13:38:00,61.0,26.7,30.21,SSE,157,15.3,19.6,27,0.00,BKN,,0.00,691.0,WeatherDisplay:10.37,2013-03-10 17:38:00,
2013-03-10 13:43:00,60.9,26.7,30.20,ESE,122,17.3,17.3,27,0.00,BKN,,0.00,679.0,WeatherDisplay:10.37,2013-03-10 17:43:00,
2013-03-10 13:48:00,60.5,26.3,30.20,SE,129,13.2,18.4,27,0.00,BKN,,0.00,654.0,WeatherDisplay:10.37,2013-03-10 17:48:00,
2013-03-10 13:53:00,60.9,27.5,30.20,SSE,152,10.5,15.0,28,0.00,BKN,,0.00,680.0,WeatherDisplay:10.37,2013-03-10 17:53:00,
2013-03-10 13:58:00,61.0,26.7,30.20,SSW,193,14.4,15.0,27,0.00,BKN,,0.00,735.0,WeatherDisplay:10.37,2013-03-10 17:58:00,
2013-03-10 14:03:00,60.7,24.6,30.20,SE,143,12.3,20.7,25,0.00,BKN,,0.00,737.0,WeatherDisplay:10.37,2013-03-10 18:03:00,
2013-03-10 14:08:00,61.0,26.7,30.19,SSE,158,20.9,21.0,27,0.00,BKN,,0.00,728.0,WeatherDisplay:10.37,2013-03-10 18:08:00,
2013-03-10 14:13:00,61.8,26.5,30.19,SSE,153,12.6,15.0,26,0.00,SCT,,0.00,724.0,WeatherDisplay:10.37,2013-03-10 18:13:00,
2013-03-10 14:18:00,61.6,24.4,30.19,SSE,155,17.9,19.6,24,0.00,SCT,,0.00,710.0,WeatherDisplay:10.37,2013-03-10 18:18:00,
2013-03-10 14:23:00,61.6,25.4,30.18,ESE,117,10.5,18.4,25,0.00,SCT,,0.00,705.0,WeatherDisplay:10.37,2013-03-10 18:23:00,
2013-03-10 14:28:00,62.0,26.7,30.18,South,186,12.6,15.0,26,0.00,SCT,,0.00,696.0,WeatherDisplay:10.37,2013-03-10 18:28:00,
2013-03-10 14:33:00,62.4,28.8,30.18,SSW,213,9.1,10.5,28,0.00,SCT,,0.00,691.0,WeatherDisplay:10.37,2013-03-10 18:33:00,
2013-03-10 14:38:00,62.6,28.1,30.18,ESE,105,7.7,10.4,27,0.00,SCT,,0.00,682.0,WeatherDisplay:10.37,2013-03-10 18:38:00,
2013-03-10 14:43:00,62.6,28.1,30.18,SSE,150,10.7,15.0,27,0.00,SCT,,0.00,679.0,WeatherDisplay:10.37,2013-03-10 18:43:00,
2013-03-10 14:48:00,62.1,27.7,30.18,SSE,164,8.6,16.1,27,0.00,SCT,,0.00,668.0,WeatherDisplay:10.37,2013-03-10 18:48:00,
2013-03-10 14:53:00,62.1,28.6,30.18,SSE,161,10.5,16.1,28,0.00,SCT,,0.00,666.0,WeatherDisplay:10.37,2013-03-10 18:53:00,
2013-03-10 14:58:00,62.4,27.0,30.18,SE,144,4.9,13.8,26,0.00,SCT,,0.00,656.0,WeatherDisplay:10.37,2013-03-10 18:58:00,
2013-03-10 15:03:00,62.9,29.3,30.18,SSE,162,10.8,18.4,28,0.00,SCT,,0.00,647.0,WeatherDisplay:10.37,2013-03-10 19:03:00,
2013-03-10 15:08:00,62.4,27.0,30.17,SE,142,9.7,16.1,26,0.00,SCT,,0.00,643.0,WeatherDisplay:10.37,2013-03-10 19:08:00,
2013-03-10 15:13:00,62.6,28.1,30.17,SSE,163,5.2,8.1,27,0.00,SCT,,0.00,635.0,WeatherDisplay:10.37,2013-03-10 19:13:00,
2013-03-10 15:18:00,63.1,29.4,30.17,SE,130,6.4,8.1,28,0.00,SCT,,0.00,628.0,WeatherDisplay:10.37,2013-03-10 19:18:00,
2013-03-10 15:23:00,63.4,29.7,30.17,SE,131,9.1,15.0,28,0.00,SCT,,0.00,613.0,WeatherDisplay:10.37,2013-03-10 19:23:00,
2013-03-10 15:28:00,63.5,28.9,30.17,SE,136,9.7,16.1,27,0.00,SCT,,0.00,603.0,WeatherDisplay:10.37,2013-03-10 19:28:00,
2013-03-10 15:33:00,63.7,29.1,30.17,South,186,10.9,15.0,27,0.00,SCT,,0.00,577.0,WeatherDisplay:10.37,2013-03-10 19:33:00,
2013-03-10 15:38:00,63.1,27.6,30.17,SSE,163,17.0,18.4,26,0.00,SCT,,0.00,568.0,WeatherDisplay:10.37,2013-03-10 19:38:00,
2013-03-10 15:43:00,62.7,26.3,30.17,SE,145,8.0,15.0,25,0.00,SCT,,0.00,568.0,WeatherDisplay:10.37,2013-03-10 19:43:00,
2013-03-10 15:48:00,62.9,27.5,30.17,South,178,8.4,19.5,26,0.00,SCT,,0.00,570.0,WeatherDisplay:10.37,2013-03-10 19:48:00,
2013-03-10 15:53:00,62.9,27.5,30.17,SSE,148,6.1,15.0,26,0.00,SCT,,0.00,524.0,WeatherDisplay:10.37,2013-03-10 19:53:00,
2013-03-10 15:58:00,63.4,27.9,30.17,ESE,119,10.2,15.0,26,0.00,SCT,,0.00,573.0,WeatherDisplay:10.37,2013-03-10 19:58:00,
2013-03-10 16:03:00,63.2,26.8,30.17,SE,126,15.1,21.0,25,0.00,SCT,,0.00,526.0,WeatherDisplay:10.37,2013-03-10 20:03:00,
2013-03-10 16:08:00,62.7,27.3,30.17,SSE,148,14.4,16.5,26,0.00,SCT,,0.00,504.0,WeatherDisplay:10.37,2013-03-10 20:08:00,
2013-03-10 16:13:00,62.9,27.5,30.17,SE,136,10.6,15.0,26,0.00,SCT,,0.00,497.0,WeatherDisplay:10.37,2013-03-10 20:13:00,
2013-03-10 16:18:00,62.7,27.3,30.17,SE,146,8.4,15.0,26,0.00,SCT,,0.00,480.0,WeatherDisplay:10.37,2013-03-10 20:18:00,
2013-03-10 16:23:00,62.7,25.3,30.17,SSE,156,19.4,20.7,24,0.00,SCT,,0.00,468.0,WeatherDisplay:10.37,2013-03-10 20:23:00,
2013-03-10 16:28:00,62.7,28.2,30.17,SSE,163,13.1,18.4,27,0.00,SCT,,0.00,455.0,WeatherDisplay:10.37,2013-03-10 20:28:00,
2013-03-10 16:33:00,62.6,27.2,30.16,SSE,156,12.9,15.0,26,0.00,SCT,,0.00,380.0,WeatherDisplay:10.37,2013-03-10 20:33:00,
2013-03-10 16:38:00,62.1,27.7,30.16,SSE,162,9.1,13.8,27,0.00,SCT,,0.00,348.0,WeatherDisplay:10.37,2013-03-10 20:38:00,
2013-03-10 16:44:00,62.3,26.9,30.15,SE,138,9.9,13.8,26,0.00,SCT,,0.00,478.0,WeatherDisplay:10.37,2013-03-10 20:44:00,
2013-03-10 16:49:00,62.6,26.2,30.15,SE,142,13.1,16.1,25,0.00,SCT,,0.00,436.0,WeatherDisplay:10.37,2013-03-10 20:49:00,
2013-03-10 16:54:00,62.6,27.2,30.15,SSE,155,15.5,19.6,26,0.00,SCT,,0.00,376.0,WeatherDisplay:10.37,2013-03-10 20:54:00,
2013-03-10 16:59:00,62.6,26.2,30.15,SW,215,10.7,16.1,25,0.00,SCT,,0.00,364.0,WeatherDisplay:10.37,2013-03-10 20:59:00,
2013-03-10 17:04:00,62.6,26.2,30.15,SSE,160,7.1,13.5,25,0.00,SCT,,0.00,345.0,WeatherDisplay:10.37,2013-03-10 21:04:00,
2013-03-10 17:09:00,62.4,26.1,30.15,SE,142,9.6,12.0,25,0.00,SCT,,0.00,309.0,WeatherDisplay:10.37,2013-03-10 21:09:00,
2013-03-10 17:14:00,62.3,27.9,30.15,SE,140,7.3,13.5,27,0.00,SCT,,0.00,278.0,WeatherDisplay:10.37,2013-03-10 21:14:00,
2013-03-10 17:19:00,62.0,26.7,30.15,SSE,149,14.5,19.6,26,0.00,SCT,,0.00,288.0,WeatherDisplay:10.37,2013-03-10 21:19:00,
2013-03-10 17:24:00,61.8,27.4,30.15,SSE,151,8.6,13.5,27,0.00,SCT,,0.00,274.0,WeatherDisplay:10.37,2013-03-10 21:24:00,
2013-03-10 17:29:00,61.8,27.4,30.15,SSE,164,9.0,10.4,27,0.00,SCT,,0.00,258.0,WeatherDisplay:10.37,2013-03-10 21:29:00,
2013-03-10 17:34:00,61.8,25.6,30.15,SE,139,17.0,23.0,25,0.00,SCT,,0.00,218.0,WeatherDisplay:10.37,2013-03-10 21:34:00,
2013-03-10 17:42:00,61.6,25.4,30.15,SE,132,9.8,18.0,25,0.00,SCT,,0.00,216.0,WeatherDisplay:10.37,2013-03-10 21:42:00,
2013-03-10 17:47:00,61.5,24.3,30.14,SSE,150,14.9,19.6,24,0.00,SCT,,0.00,193.0,WeatherDisplay:10.37,2013-03-10 21:47:00,
2013-03-10 17:52:00,61.3,26.1,30.14,SSE,147,8.8,13.8,26,0.00,SCT,,0.00,181.0,WeatherDisplay:10.37,2013-03-10 21:52:00,
2013-03-10 17:57:00,61.3,27.0,30.14,SSE,148,4.7,10.4,27,0.00,SCT,,0.00,149.0,WeatherDisplay:10.37,2013-03-10 21:57:00,
2013-03-10 18:02:00,61.3,25.1,30.14,South,170,9.2,13.8,25,0.00,SCT,,0.00,139.0,WeatherDisplay:10.37,2013-03-10 22:02:00,
2013-03-10 18:07:00,61.0,25.8,30.14,SSE,156,12.8,18.4,26,0.00,SCT,,0.00,98.0,WeatherDisplay:10.37,2013-03-10 22:07:00,
2013-03-10 18:12:00,60.9,26.7,30.15,SSE,166,6.2,10.4,27,0.00,SCT,,0.00,79.0,WeatherDisplay:10.37,2013-03-10 22:12:00,
2013-03-10 18:17:00,60.9,24.8,30.15,SSE,150,11.8,15.0,25,0.00,SCT,,0.00,62.0,WeatherDisplay:10.37,2013-03-10 22:17:00,
2013-03-10 18:22:00,60.5,26.3,30.15,SSE,153,8.2,9.2,27,0.00,SCT,,0.00,69.0,WeatherDisplay:10.37,2013-03-10 22:22:00,
2013-03-10 18:27:00,60.2,25.1,30.15,SSE,148,12.1,15.0,26,0.00,SCT,,0.00,42.0,WeatherDisplay:10.37,2013-03-10 22:27:00,
2013-03-10 18:32:00,60.1,25.1,30.15,SSE,150,12.1,16.1,26,0.00,SCT,,0.00,33.0,WeatherDisplay:10.37,2013-03-10 22:32:00,
2013-03-10 18:37:00,59.5,25.5,30.15,SSE,155,5.4,9.0,27,0.00,SCT,,0.00,23.0,WeatherDisplay:10.37,2013-03-10 22:37:00,
2013-03-10 18:42:00,58.9,24.9,30.15,South,184,7.1,9.2,27,0.00,SCT,,0.00,16.0,WeatherDisplay:10.37,2013-03-10 22:42:00,
2013-03-10 18:47:00,58.4,24.5,30.15,SSE,157,2.1,4.6,27,0.00,SCT,,0.00,12.0,WeatherDisplay:10.37,2013-03-10 22:47:00,
2013-03-10 18:52:00,58.4,24.5,30.15,SSE,162,9.9,15.0,27,0.00,SCT,,0.00,12.0,WeatherDisplay:10.37,2013-03-10 22:52:00,
2013-03-10 18:57:00,58.1,25.1,30.15,SSE,153,0.3,3.5,28,0.00,SCT,,0.00,11.0,WeatherDisplay:10.37,2013-03-10 22:57:00,
2013-03-10 19:02:00,57.5,23.7,30.15,SE,124,1.6,3.5,27,0.00,SCT,,0.00,9.0,WeatherDisplay:10.37,2013-03-10 23:02:00,
2013-03-10 19:07:00,56.9,24.1,30.16,ESE,116,3.8,6.0,28,0.00,SCT,,0.00,5.0,WeatherDisplay:10.37,2013-03-10 23:07:00,
2013-03-10 19:12:00,56.6,23.8,30.16,SSE,153,0.0,8.1,28,0.00,SCT,,0.00,0.0,WeatherDisplay:10.37,2013-03-10 23:12:00,
2013-03-10 19:17:00,56.2,24.3,30.16,SSE,150,0.5,8.1,29,0.00,SCT,,0.00,0.0,WeatherDisplay:10.37,2013-03-10 23:17:00,
2013-03-10 19:23:00,55.7,23.1,30.16,SSE,151,3.9,10.4,28,0.00,SCT,,0.00,0.0,WeatherDisplay:10.37,2013-03-10 23:23:00,
2013-03-10 19:28:00,55.6,23.8,30.16,SSE,150,4.7,9.0,29,0.00,SCT,,0.00,0.0,WeatherDisplay:10.37,2013-03-10 23:28:00,
2013-03-10 19:33:00,55.9,23.2,30.17,SSE,149,5.7,9.2,28,0.00,SCT,,0.00,0.0,WeatherDisplay:10.37,2013-03-10 23:33:00,
2013-03-10 19:38:00,55.7,23.1,30.17,SSE,163,1.0,4.6,28,0.00,SCT,,0.00,0.0,WeatherDisplay:10.37,2013-03-10 23:38:00,
2013-03-10 19:56:00,55.3,22.7,30.17,SSE,148,2.9,6.0,28,0.00,SCT,,0.00,0.0,WeatherDisplay:10.37,2013-03-10 23:56:00,
2013-03-10 20:03:00,55.1,22.5,30.17,SSE,157,0.0,9.2,28,0.00,SCT,,0.00,0.0,WeatherDisplay:10.37,2013-03-11 00:03:00,
2013-03-10 20:08:00,54.8,23.1,30.17,SSE,161,2.0,9.2,29,0.00,SCT,,0.00,0.0,WeatherDisplay:10.37,2013-03-11 00:08:00,
2013-03-10 20:13:00,54.7,23.0,30.17,SSE,158,11.3,13.5,29,0.00,SCT,,0.00,0.0,WeatherDisplay:10.37,2013-03-11 00:13:00,
2013-03-10 20:18:00,54.7,22.2,30.16,SSE,163,10.9,13.8,28,0.00,SCT,,0.00,0.0,WeatherDisplay:10.37,2013-03-11 00:18:00,
2013-03-10 20:23:00,54.4,23.6,30.16,WSW,250,7.5,7.5,30,0.00,SCT,,0.00,0.0,WeatherDisplay:10.37,2013-03-11 00:23:00,
2013-03-10 20:28:00,54.4,22.8,30.16,SW,220,11.4,16.5,29,0.00,SCT,,0.00,0.0,WeatherDisplay:10.37,2013-03-11 00:28:00,
2013-03-10 20:33:00,54.5,22.0,30.16,SSE,160,9.6,15.0,28,0.00,SCT,,0.00,0.0,WeatherDisplay:10.37,2013-03-11 00:33:00,
2013-03-10 20:38:00,54.4,21.9,30.16,SSE,166,9.3,13.8,28,0.00,SCT,,0.00,0.0,WeatherDisplay:10.37,2013-03-11 00:38:00,
2013-03-10 20:43:00,54.4,21.9,30.16,SE,135,11.2,13.5,28,0.00,SCT,,0.00,0.0,WeatherDisplay:10.37,2013-03-11 00:43:00,
2013-03-10 20:48:00,54.2,21.8,30.16,SSE,157,6.3,9.2,28,0.00,SCT,,0.00,0.0,WeatherDisplay:10.37,2013-03-11 00:48:00,
2013-03-10 20:53:00,54.1,21.7,30.16,SSE,157,9.1,15.0,28,0.00,SCT,,0.00,0.0,WeatherDisplay:10.37,2013-03-11 00:53:00,
2013-03-10 20:58:00,53.8,21.4,30.17,South,173,7.2,15.0,28,0.00,SCT,,0.00,0.0,WeatherDisplay:10.37,2013-03-11 00:58:00,
2013-03-10 21:03:00,53.3,21.8,30.15,SE,146,9.0,16.5,29,0.00,SCT,,0.00,0.0,WeatherDisplay:10.37,2013-03-11 01:03:00,
2013-03-10 21:08:00,53.5,21.2,30.15,South,169,18.6,19.6,28,0.00,SCT,,0.00,0.0,WeatherDisplay:10.37,2013-03-11 01:08:00,
2013-03-10 21:14:00,53.8,21.4,30.16,SE,132,6.5,19.5,28,0.00,SCT,,0.00,0.0,WeatherDisplay:10.37,2013-03-11 01:14:00,
2013-03-10 21:19:00,53.6,20.4,30.17,SE,137,5.3,9.2,27,0.00,SCT,,0.00,0.0,WeatherDisplay:10.37,2013-03-11 01:19:00,
2013-03-10 21:24:00,53.3,21.0,30.16,SSE,149,4.5,15.0,28,0.00,FEW,,0.00,0.0,WeatherDisplay:10.37,2013-03-11 01:24:00,
2013-03-10 21:29:00,53.1,20.8,30.16,ESE,107,11.1,16.5,28,0.00,FEW,,0.00,0.0,WeatherDisplay:10.37,2013-03-11 01:29:00,
2013-03-10 21:34:00,52.9,20.6,30.16,SW,223,4.7,10.4,28,0.00,FEW,,0.00,0.0,WeatherDisplay:10.37,2013-03-11 01:34:00,
2013-03-10 21:39:00,52.8,21.4,30.16,SSE,159,6.4,9.2,29,0.00,FEW,,0.00,0.0,WeatherDisplay:10.37,2013-03-11 01:39:00,
2013-03-10 21:44:00,52.5,21.1,30.16,ESE,119,5.3,15.0,29,0.00,FEW,,0.00,0.0,WeatherDisplay:10.37,2013-03-11 01:44:00,
2013-03-10 21:49:00,52.5,21.1,30.16,South,188,2.5,9.2,29,0.00,FEW,,0.00,0.0,WeatherDisplay:10.37,2013-03-11 01:49:00,
2013-03-10 21:54:00,52.3,21.7,30.16,WSW,238,5.3,9.2,30,0.00,FEW,,0.00,0.0,WeatherDisplay:10.37,2013-03-11 01:54:00,
2013-03-10 21:59:00,52.2,21.7,30.17,South,185,6.9,15.0,30,0.00,FEW,,0.00,0.0,WeatherDisplay:10.37,2013-03-11 01:59:00,
2013-03-10 22:04:00,52.2,20.9,30.16,SSE,147,8.3,9.2,29,0.00,FEW,,0.00,0.0,WeatherDisplay:10.37,2013-03-11 02:04:00,
2013-03-10 22:09:00,52.2,20.9,30.16,SSE,156,4.6,8.1,29,0.00,FEW,,0.00,0.0,WeatherDisplay:10.37,2013-03-11 02:09:00,
2013-03-10 22:14:00,52.2,20.9,30.16,SW,223,4.4,13.8,29,0.00,FEW,,0.00,0.0,WeatherDisplay:10.37,2013-03-11 02:14:00,
2013-03-10 22:19:00,52.0,21.5,30.16,SSE,157,3.0,7.5,30,0.00,FEW,,0.00,0.0,WeatherDisplay:10.37,2013-03-11 02:19:00,
2013-03-10 22:24:00,51.9,21.4,30.16,SSE,162,4.8,16.1,30,0.00,FEW,,0.00,0.0,WeatherDisplay:10.37,2013-03-11 02:24:00,
2013-03-10 22:29:00,51.7,22.0,30.16,SSE,152,7.1,15.0,31,0.00,FEW,,0.00,0.0,WeatherDisplay:10.37,2013-03-11 02:29:00,
2013-03-10 22:34:00,51.3,22.4,30.16,SSE,155,6.3,8.1,32,0.00,FEW,,0.00,0.0,WeatherDisplay:10.37,2013-03-11 02:34:00,
2013-03-10 22:39:00,50.8,22.7,30.17,SE,126,7.7,10.4,33,0.00,FEW,,0.00,0.0,WeatherDisplay:10.37,2013-03-11 02:39:00,
2013-03-10 22:44:00,50.5,22.4,30.16,SE,142,9.1,10.5,33,0.00,FEW,,0.00,0.0,WeatherDisplay:10.37,2013-03-11 02:44:00,
2013-03-10 22:49:00,50.4,22.3,30.16,SSE,167,7.8,10.4,33,0.00,FEW,,0.00,0.0,WeatherDisplay:10.37,2013-03-11 02:49:00,
2013-03-10 22:54:00,50.2,22.9,30.16,SSE,156,5.4,9.2,34,0.00,FEW,,0.00,0.0,WeatherDisplay:10.37,2013-03-11 02:54:00,
2013-03-10 22:59:00,50.1,22.8,30.16,SSE,155,7.5,10.4,34,0.00,FEW,,0.00,0.0,WeatherDisplay:10.37,2013-03-11 02:59:00,
2013-03-10 23:04:00,50.2,22.9,30.16,SSE,149,3.9,5.8,34,0.00,BKN,,0.00,0.0,WeatherDisplay:10.37,2013-03-11 03:04:00,
2013-03-10 23:09:00,49.9,22.6,30.16,SSE,161,2.2,3.5,34,0.00,BKN,,0.00,0.0,WeatherDisplay:10.37,2013-03-11 03:09:00,
2013-03-10 23:14:00,49.8,23.2,30.16,SSE,161,1.4,3.5,35,0.00,BKN,,0.00,0.0,WeatherDisplay:10.37,2013-03-11 03:14:00,
2013-03-10 23:19:00,49.6,23.0,30.15,South,176,0.4,3.5,35,0.00,BKN,,0.00,0.0,WeatherDisplay:10.37,2013-03-11 03:19:00,
2013-03-10 23:24:00,49.9,22.6,30.16,SSE,153,9.7,13.8,34,0.00,BKN,,0.00,0.0,WeatherDisplay:10.37,2013-03-11 03:24:00,
2013-03-10 23:29:00,50.2,22.9,30.16,SSW,195,3.5,6.0,34,0.00,BKN,,0.00,0.0,WeatherDisplay:10.37,2013-03-11 03:29:00,
2013-03-10 23:34:00,50.4,23.1,30.16,South,190,7.9,13.8,34,0.00,BKN,,0.00,0.0,WeatherDisplay:10.37,2013-03-11 03:34:00,
2013-03-10 23:39:00,50.5,23.1,30.16,SE,134,7.5,16.1,34,0.00,BKN,,0.00,0.0,WeatherDisplay:10.37,2013-03-11 03:39:00,
2013-03-10 23:44:00,50.4,23.7,30.16,SSE,154,12.0,13.5,35,0.00,BKN,,0.00,0.0,WeatherDisplay:10.37,2013-03-11 03:44:00,
2013-03-10 23:49:00,50.1,24.2,30.15,ESE,115,4.6,9.0,36,0.00,BKN,,0.00,0.0,WeatherDisplay:10.37,2013-03-11 03:49:00,
2013-03-10 23:54:00,49.6,24.4,30.15,SSE,152,6.1,10.5,37,0.00,BKN,,0.00,0.0,WeatherDisplay:10.37,2013-03-11 03:54:00,
2013-03-10 23:59:00,49.5,24.3,30.15,SSE,148,6.2,9.0,37,0.00,BKN,,0.00,0.0,WeatherDisplay:10.37,2013-03-11 03:59:00,